Lenexa, Kansas
Current Conditions -  °F | °C
As of 1:53 PM on Sunday 21 Dec 2014 (Local Time) from KOJC Reporting Station
Overcast Overcast  
Wind Chill: 40°   Ceiling: 3500
Heat Index: 45°   Visibility: 10mi
Dew Point: 40°   Wind: 10mph
Humidity: 82%   Direction: 180°S
Pressure: 29.86"   Gusts: NA
Location:  38.96°N, 94.74°W
Report Text: KOJC 211953Z 18009KT 10SM SCT018 OVC035 07/04 A2986 RMK AO2 SLP115 T00720044
Loading
Personal Weather Stations






























Interactive Weather Map New forecast layout! Learn more

10-Day Weather Forecast

Advertisements
Track Severe Weather on mobile